Boardwalk — ZGAQ7 — position and weather

sailwx.info

Track history (hours):
 
Tides and Currents Weather Stations Pressure Air Temp Water Temp Dewpoint Dewpoint Depression Visibility Wind Speed Wind Dir Waves Ship Positions

Boardwalk

Last reported at 2016-Oct-16 17:32 UTC. Time now 2016-Dec-06 16:06 UTC.
Position N 25°48' W 080°15'.
Warning: this ship's position is 50 days out of date.

Length 50 m; draft 2.7 m.

Type: Pleasure craft. MMSI: 319031900.

Date/timePositionNaut miles runAvg speedWind from/ knotsBaromVisibWave heightAir tempDewpointWater temp
2016-Oct-16 17:32N 25°48' W 080°15'0 0.0
2016-Oct-16 14:32N 25°48' W 080°15'1 0.7
2016-Oct-16 12:33N 25°47' W 080°14'2 2.4
2016-Oct-16 11:33N 25°46' W 080°11'0 0.0
2016-Oct-16 10:32N 25°46' W 080°11'0 0.0
2016-Oct-16 09:32N 25°46' W 080°11'0 0.0
2016-Oct-16 05:32N 25°46' W 080°11'0 0.1
2016-Oct-16 04:32N 25°46' W 080°11'0 0.1
2016-Oct-16 02:29N 25°46' W 080°11'0 0.1
2016-Oct-16 01:32N 25°46' W 080°11'0 0.0
2016-Oct-15 23:32N 25°46' W 080°11'0 0.1
2016-Oct-15 22:32N 25°46' W 080°11'0 0.0
2016-Oct-15 19:32N 25°46' W 080°11'0 0.0
2016-Oct-15 17:32N 25°46' W 080°11'0 0.0
2016-Oct-15 16:32N 25°46' W 080°11'0 0.0
2016-Oct-15 14:23N 25°46' W 080°11'0 0.0
2016-Oct-15 11:32N 25°46' W 080°11'0 0.0
2016-Oct-15 06:32N 25°46' W 080°11'0 0.0
2016-Oct-15 04:32N 25°46' W 080°11'0 0.0
2016-Oct-14 23:32N 25°46' W 080°11'9 1.9
2016-Oct-14 18:34N 25°53' W 080°05'1312.8
2016-Oct-14 17:33N 26°06' W 080°07'4 0.1
2016-Oct-13 13:29N 26°10' W 080°06'0 0.0
2016-Oct-12 21:29N 26°10' W 080°06'0 0.0
2016-Oct-12 18:32N 26°10' W 080°06'0 0.0
2016-Oct-12 10:26N 26°10' W 080°06'0 0.0
2016-Oct-12 07:29N 26°10' W 080°06'0 0.0
2016-Oct-11 20:26N 26°10' W 080°06'0 0.0
2016-Oct-11 19:14N 26°10' W 080°06'0 0.0
2016-Oct-11 03:11N 26°10' W 080°06'0 0.0
2016-Oct-11 01:14N 26°10' W 080°06'0 0.0
2016-Oct-10 22:05N 26°10' W 080°06'0 0.0
2016-Oct-10 13:29N 26°10' W 080°06'  
Track history (hours):
 
Tides and Currents Weather Stations Pressure Air Temp Water Temp Dewpoint Dewpoint Depression Visibility Wind Speed Wind Dir Waves Ship Positions

Boardwalk

Last reported at 2016-Oct-16 17:32 UTC. Time now 2016-Dec-06 16:06 UTC.
Position N 25°48' W 080°15'.
Warning: this ship's position is 50 days out of date.

Length 50 m; draft 2.7 m.

Type: Pleasure craft. MMSI: 319031900.

Date/timePositionNaut miles runAvg speedWind from/ knotsBaromVisibWave heightAir tempDewpointWater temp
2016-Oct-16 17:32N 25°48' W 080°15'0 0.0
2016-Oct-16 14:32N 25°48' W 080°15'1 0.7
2016-Oct-16 12:33N 25°47' W 080°14'2 2.4
2016-Oct-16 11:33N 25°46' W 080°11'0 0.0
2016-Oct-16 10:32N 25°46' W 080°11'0 0.0
2016-Oct-16 09:32N 25°46' W 080°11'0 0.0
2016-Oct-16 05:32N 25°46' W 080°11'0 0.1
2016-Oct-16 04:32N 25°46' W 080°11'0 0.1
2016-Oct-16 02:29N 25°46' W 080°11'0 0.1
2016-Oct-16 01:32N 25°46' W 080°11'0 0.0
2016-Oct-15 23:32N 25°46' W 080°11'0 0.1
2016-Oct-15 22:32N 25°46' W 080°11'0 0.0
2016-Oct-15 19:32N 25°46' W 080°11'0 0.0
2016-Oct-15 17:32N 25°46' W 080°11'0 0.0
2016-Oct-15 16:32N 25°46' W 080°11'0 0.0
2016-Oct-15 14:23N 25°46' W 080°11'0 0.0
2016-Oct-15 11:32N 25°46' W 080°11'0 0.0
2016-Oct-15 06:32N 25°46' W 080°11'0 0.0
2016-Oct-15 04:32N 25°46' W 080°11'0 0.0
2016-Oct-14 23:32N 25°46' W 080°11'9 1.9
2016-Oct-14 18:34N 25°53' W 080°05'1312.8
2016-Oct-14 17:33N 26°06' W 080°07'4 0.1
2016-Oct-13 13:29N 26°10' W 080°06'0 0.0
2016-Oct-12 21:29N 26°10' W 080°06'0 0.0
2016-Oct-12 18:32N 26°10' W 080°06'0 0.0
2016-Oct-12 10:26N 26°10' W 080°06'0 0.0
2016-Oct-12 07:29N 26°10' W 080°06'0 0.0
2016-Oct-11 20:26N 26°10' W 080°06'0 0.0
2016-Oct-11 19:14N 26°10' W 080°06'0 0.0
2016-Oct-11 03:11N 26°10' W 080°06'0 0.0
2016-Oct-11 01:14N 26°10' W 080°06'0 0.0
2016-Oct-10 22:05N 26°10' W 080°06'0 0.0
2016-Oct-10 13:29N 26°10' W 080°06'  

Dump ship's entire track history